createdAt,value
2024-03-16T00:01:24.086Z,94.80
2024-03-16T00:03:51.013Z,94.60
2024-03-16T00:06:17.775Z,94.60
2024-03-16T00:08:44.761Z,94.60
2024-03-16T00:11:11.671Z,94.50
2024-03-16T00:13:38.448Z,94.30
2024-03-16T00:16:05.647Z,94.40
2024-03-16T00:18:33.376Z,94.30
2024-03-16T00:21:00.421Z,94.20
2024-03-16T00:23:27.205Z,94.20
2024-03-16T00:25:53.988Z,94.20
2024-03-16T00:28:20.745Z,94.20
2024-03-16T00:30:47.800Z,94.20
2024-03-16T00:33:14.682Z,94.30
2024-03-16T00:35:41.448Z,94.20
2024-03-16T00:38:08.227Z,94.10
2024-03-16T00:40:35.024Z,94.20
2024-03-16T00:43:01.914Z,94.40
2024-03-16T00:45:28.902Z,94.50
2024-03-16T00:47:57.270Z,94.70
2024-03-16T00:50:24.166Z,94.70
2024-03-16T00:52:50.947Z,94.80
2024-03-16T00:55:17.984Z,94.70
2024-03-16T00:57:44.806Z,94.60
2024-03-16T01:00:12.352Z,94.60
2024-03-16T01:02:40.552Z,94.50
2024-03-16T01:05:07.870Z,94.40
2024-03-16T01:07:34.643Z,94.40
2024-03-16T01:10:02.042Z,94.40
2024-03-16T01:12:29.511Z,94.40
2024-03-16T01:14:56.283Z,94.50
2024-03-16T01:17:23.140Z,94.30
2024-03-16T01:19:50.100Z,94.20
2024-03-16T01:22:16.923Z,94.20
2024-03-16T01:24:43.728Z,94.20
2024-03-16T01:27:10.642Z,94.20
2024-03-16T01:29:37.430Z,94.20
2024-03-16T01:32:06.484Z,94.20
2024-03-16T01:34:33.370Z,94.20
2024-03-16T01:37:00.236Z,94.10
2024-03-16T01:39:27.085Z,94.10
2024-03-16T01:41:53.944Z,93.70
2024-03-16T01:44:20.728Z,93.40
2024-03-16T01:46:48.445Z,93.10
2024-03-16T01:49:15.666Z,92.80
2024-03-16T01:51:42.635Z,92.80
2024-03-16T01:54:11.696Z,92.80
2024-03-16T01:56:38.676Z,92.80
2024-03-16T01:59:05.520Z,92.90
2024-03-16T02:01:32.724Z,92.90
2024-03-16T02:03:59.987Z,92.80
2024-03-16T02:06:29.275Z,92.80
2024-03-16T02:08:56.143Z,92.80
2024-03-16T02:11:23.352Z,92.80
2024-03-16T02:13:50.658Z,92.80
2024-03-16T02:16:17.460Z,92.90
2024-03-16T02:18:44.419Z,92.90
2024-03-16T02:21:11.862Z,92.90
2024-03-16T02:23:40.685Z,92.80
2024-03-16T02:26:08.754Z,92.80
2024-03-16T02:28:35.668Z,92.90
2024-03-16T02:31:02.942Z,93.00
2024-03-16T02:33:29.958Z,93.10
2024-03-16T02:35:57.286Z,93.00
2024-03-16T02:38:24.303Z,93.00
2024-03-16T02:40:51.067Z,92.90
2024-03-16T02:43:17.837Z,93.00
2024-03-16T02:45:44.779Z,93.00
2024-03-16T02:48:12.541Z,92.90
2024-03-16T02:50:39.421Z,93.00
2024-03-16T02:53:06.217Z,93.00
2024-03-16T02:55:33.096Z,93.10
2024-03-16T02:57:59.949Z,93.10
2024-03-16T03:00:28.330Z,93.20
2024-03-16T03:02:55.340Z,93.20
2024-03-16T03:05:23.850Z,93.20
2024-03-16T03:07:50.751Z,93.20
2024-03-16T03:10:18.041Z,93.20
2024-03-16T03:12:46.145Z,93.00
2024-03-16T03:15:13.113Z,93.00
2024-03-16T03:17:40.586Z,92.90
2024-03-16T03:20:10.219Z,92.80
2024-03-16T03:22:37.434Z,92.80
2024-03-16T03:25:04.876Z,92.70
2024-03-16T03:27:32.289Z,92.60
2024-03-16T03:29:59.192Z,92.30
2024-03-16T03:32:26.039Z,92.20
2024-03-16T03:34:52.853Z,92.10
2024-03-16T03:37:21.988Z,92.20
2024-03-16T03:39:53.207Z,92.00
2024-03-16T03:42:20.558Z,91.90
2024-03-16T03:45:07.584Z,91.80
2024-03-16T03:47:51.117Z,91.70
2024-03-16T03:50:27.790Z,91.60
2024-03-16T03:53:00.384Z,91.60
2024-03-16T03:55:27.672Z,91.60
2024-03-16T03:57:55.802Z,91.60
2024-03-16T04:00:23.105Z,91.60
2024-03-16T04:02:50.079Z,91.50
2024-03-16T04:05:16.839Z,91.40
2024-03-16T04:07:44.844Z,91.20
2024-03-16T04:10:11.738Z,91.00
2024-03-16T04:12:38.590Z,91.20
2024-03-16T04:15:05.838Z,91.40
2024-03-16T04:17:32.691Z,91.40
2024-03-16T04:19:59.469Z,91.50
2024-03-16T04:22:26.252Z,91.50
2024-03-16T04:24:53.100Z,91.60
2024-03-16T04:27:20.062Z,91.50
2024-03-16T04:29:46.877Z,91.30
2024-03-16T04:32:13.703Z,91.40
2024-03-16T04:34:40.475Z,91.00
2024-03-16T04:37:07.354Z,90.80
2024-03-16T04:39:34.190Z,90.90
2024-03-16T04:42:00.986Z,90.90
2024-03-16T04:44:27.730Z,90.80
2024-03-16T04:46:55.819Z,90.80
2024-03-16T04:49:22.740Z,91.00
2024-03-16T04:51:49.559Z,91.00
2024-03-16T04:54:16.378Z,91.10
2024-03-16T04:56:43.396Z,91.10
2024-03-16T04:59:12.340Z,91.10
2024-03-16T05:01:39.427Z,91.00
2024-03-16T05:04:06.443Z,91.10
2024-03-16T05:06:34.791Z,91.00
2024-03-16T05:09:11.087Z,90.80
2024-03-16T05:11:38.490Z,91.00
2024-03-16T05:14:07.342Z,90.80
2024-03-16T05:16:38.497Z,90.70
2024-03-16T05:19:05.937Z,90.80
2024-03-16T05:21:33.092Z,90.80
2024-03-16T05:24:03.037Z,90.90
2024-03-16T05:26:31.933Z,90.80
2024-03-16T05:28:59.136Z,91.00
2024-03-16T05:31:27.101Z,90.90
2024-03-16T05:33:54.024Z,90.90
2024-03-16T05:36:20.929Z,91.10
2024-03-16T05:38:47.662Z,91.10
2024-03-16T05:41:14.831Z,91.10
2024-03-16T05:43:44.404Z,91.10
2024-03-16T05:46:14.423Z,91.10
2024-03-16T05:48:41.885Z,91.10
2024-03-16T05:51:08.687Z,91.10
2024-03-16T05:53:35.528Z,91.00
2024-03-16T05:56:02.323Z,90.90
2024-03-16T05:58:32.792Z,90.60
2024-03-16T06:01:00.303Z,90.70
2024-03-16T06:03:28.128Z,91.00
2024-03-16T06:05:55.210Z,90.90
2024-03-16T06:08:22.026Z,90.80
2024-03-16T06:10:49.195Z,90.70
2024-03-16T06:13:16.414Z,90.90
2024-03-16T06:15:43.383Z,90.80
2024-03-16T06:18:10.359Z,91.10
2024-03-16T06:20:37.425Z,90.60
2024-03-16T06:23:04.639Z,90.90
2024-03-16T06:25:37.051Z,90.50
2024-03-16T06:28:08.133Z,90.50
2024-03-16T06:30:36.780Z,90.30
2024-03-16T06:33:10.424Z,90.70
2024-03-16T06:35:44.945Z,90.80
2024-03-16T06:38:11.690Z,90.80
2024-03-16T06:40:38.464Z,90.90
2024-03-16T06:43:05.360Z,90.60
2024-03-16T06:45:32.779Z,90.20
2024-03-16T06:47:59.700Z,89.60
2024-03-16T06:50:26.574Z,90.40
2024-03-16T06:52:53.347Z,90.40
2024-03-16T06:55:20.729Z,89.50
2024-03-16T06:57:47.740Z,89.60
2024-03-16T07:00:15.504Z,89.50
2024-03-16T07:02:42.486Z,89.50
2024-03-16T07:05:10.593Z,89.10
2024-03-16T07:07:37.477Z,88.80
2024-03-16T07:10:07.596Z,89.00
2024-03-16T07:12:34.871Z,89.30
2024-03-16T07:15:01.723Z,89.10
2024-03-16T07:17:32.427Z,89.00
2024-03-16T07:19:59.274Z,89.10
2024-03-16T07:22:26.035Z,89.00
2024-03-16T07:24:52.864Z,89.20
2024-03-16T07:27:19.680Z,89.30
2024-03-16T07:29:46.500Z,89.10
2024-03-16T07:32:13.461Z,89.20
2024-03-16T07:34:41.452Z,89.50
2024-03-16T07:37:08.334Z,89.60
2024-03-16T07:39:35.256Z,89.30
2024-03-16T07:42:02.090Z,90.10
2024-03-16T07:44:30.336Z,90.40
2024-03-16T07:46:57.156Z,90.80
2024-03-16T07:49:23.957Z,90.70
2024-03-16T07:51:50.799Z,90.50
2024-03-16T07:54:17.610Z,90.60
2024-03-16T07:56:44.925Z,90.70
2024-03-16T07:59:12.426Z,90.60
2024-03-16T08:01:39.334Z,89.90
2024-03-16T08:04:06.621Z,89.30
2024-03-16T08:06:33.504Z,89.70
2024-03-16T08:09:00.272Z,89.30
2024-03-16T08:11:29.222Z,89.30
2024-03-16T08:13:56.046Z,89.40
2024-03-16T08:16:22.862Z,89.30
2024-03-16T08:18:50.167Z,88.20
2024-03-16T08:21:17.419Z,88.50
2024-03-16T08:23:45.141Z,87.70
2024-03-16T08:26:13.694Z,86.90
2024-03-16T08:28:41.034Z,87.70
2024-03-16T08:31:09.397Z,87.10
2024-03-16T08:33:36.371Z,85.80
2024-03-16T08:36:06.904Z,86.70
2024-03-16T08:38:34.582Z,85.70
2024-03-16T08:41:03.176Z,85.70
2024-03-16T08:43:31.743Z,86.80
2024-03-16T08:46:02.819Z,83.60
2024-03-16T08:48:29.938Z,84.60
2024-03-16T08:51:00.270Z,84.70
2024-03-16T08:53:27.449Z,84.60
2024-03-16T08:55:59.372Z,84.90
2024-03-16T08:58:26.640Z,85.90
2024-03-16T09:00:56.900Z,84.70
2024-03-16T09:03:23.881Z,84.40
2024-03-16T09:05:50.633Z,85.80
2024-03-16T09:08:17.460Z,85.10
2024-03-16T09:10:45.688Z,83.90
2024-03-16T09:13:12.763Z,84.40
2024-03-16T09:15:40.290Z,83.50
2024-03-16T09:18:07.139Z,83.80
2024-03-16T09:20:34.950Z,83.50
2024-03-16T09:23:02.207Z,83.10
2024-03-16T09:25:29.264Z,82.80
2024-03-16T09:27:56.047Z,84.10
2024-03-16T09:30:23.218Z,84.20
2024-03-16T09:32:50.277Z,83.10
2024-03-16T09:35:17.126Z,84.60
2024-03-16T09:37:43.952Z,83.40
2024-03-16T09:40:12.334Z,83.40
2024-03-16T09:42:39.766Z,83.60
